Time;durP1;ratioP1;P1;durP2;ratioP2;P2;SDS_P1;SDS_P2;PMS_P1;PMS_P2;Temp;Humidity;BMP_temperature;BMP_pressure;BME280_temperature;BME280_humidity;BME280_pressure;Samples;Min_cycle;Max_cycle;Signal;HPM_P1;HPM_P2
2022/07/09 00:02:06;;;;;;;6.40;6.10;;;;;;;16.11;98.77;102383.91;6026582;23;20018;-69
2022/07/09 00:04:32;;;;;;;5.05;4.85;;;;;;;16.06;99.35;102380.66;6029493;23;20456;-69
2022/07/09 00:07:00;;;;;;;5.15;4.95;;;;;;;15.83;98.73;102363.22;6025314;23;20045;-69
2022/07/09 00:09:26;;;;;;;5.28;4.97;;;;;;;15.55;99.17;102314.19;6030172;23;20127;-69
2022/07/09 00:11:53;;;;;;;5.30;5.10;;;;;;;15.95;100.00;102389.09;6027822;23;20026;-69
2022/07/09 00:14:19;;;;;;;5.95;5.65;;;;;;;15.90;99.53;102389.31;6008198;23;20512;-69
2022/07/09 00:16:46;;;;;;;5.07;4.88;;;;;;;15.74;100.00;102375.09;6023394;23;20007;-69
2022/07/09 00:19:13;;;;;;;6.47;6.18;;;;;;;15.85;100.00;102414.28;6015474;23;20023;-69
2022/07/09 00:21:39;;;;;;;4.97;4.78;;;;;;;15.68;100.00;102364.78;6021306;23;20013;-69
2022/07/09 00:24:06;;;;;;;6.45;6.15;;;;;;;14.66;100.00;102221.31;6022705;23;20132;-69
2022/07/09 00:26:32;;;;;;;5.18;4.97;;;;;;;15.72;100.00;102390.16;5993294;23;20179;-68
2022/07/09 00:28:59;;;;;;;6.07;5.78;;;;;;;15.69;100.00;102387.66;6021293;23;20031;-69
2022/07/09 00:31:25;;;;;;;4.88;4.68;;;;;;;15.65;100.00;102380.78;5994738;23;20092;-68
2022/07/09 00:33:53;;;;;;;5.68;5.30;;;;;;;15.63;100.00;102394.06;6021202;23;20027;-69
2022/07/09 00:36:19;;;;;;;5.03;4.82;;;;;;;15.60;100.00;102412.75;6032192;23;20043;-69
2022/07/09 00:38:46;;;;;;;5.00;4.80;;;;;;;15.41;100.00;102356.31;6038972;23;20042;-68
2022/07/09 00:41:12;;;;;;;6.78;6.47;;;;;;;15.49;100.00;102373.53;6022495;23;20038;-69
2022/07/09 00:43:47;;;;;;;5.18;4.97;;;;;;;15.53;100.00;102385.69;6036226;23;20021;-69
2022/07/09 00:46:13;;;;;;;5.10;4.80;;;;;;;15.38;100.00;102364.41;6024534;23;20041;-69
2022/07/09 00:48:40;;;;;;;4.95;4.75;;;;;;;15.34;100.00;102329.28;6021087;23;20393;-69
2022/07/09 00:51:08;;;;;;;5.45;5.25;;;;;;;15.45;100.00;102382.56;6019105;23;20025;-69
2022/07/09 00:53:35;;;;;;;4.95;4.75;;;;;;;15.31;100.00;102335.56;6031708;23;20042;-69
2022/07/09 00:56:02;;;;;;;4.80;4.60;;;;;;;15.37;100.00;102350.31;5997096;23;20027;-69
2022/07/09 00:58:30;;;;;;;5.10;4.90;;;;;;;13.93;100.00;102118.00;6008089;23;20011;-69
2022/07/09 01:00:58;;;;;;;5.00;4.80;;;;;;;15.30;100.00;102341.78;5996215;23;20021;-70
2022/07/09 01:03:24;;;;;;;5.10;4.90;;;;;;;15.05;100.00;102307.66;6009139;23;20050;-69
2022/07/09 01:05:51;;;;;;;5.00;4.80;;;;;;;15.32;100.00;102352.31;6031652;23;20035;-69
2022/07/09 01:08:17;;;;;;;5.78;5.55;;;;;;;15.19;100.00;102346.69;6018118;23;20135;-68
2022/07/09 01:10:45;;;;;;;5.05;4.85;;;;;;;15.24;100.00;102352.66;6033183;23;20030;-69
2022/07/09 01:13:12;;;;;;;6.15;5.85;;;;;;;15.12;100.00;102326.78;6017598;23;20025;-69
2022/07/09 01:15:38;;;;;;;5.63;5.32;;;;;;;15.20;100.00;102337.00;6029121;23;20421;-69
2022/07/09 01:18:05;;;;;;;6.28;5.97;;;;;;;15.07;100.00;102323.47;5990723;23;20047;-68
2022/07/09 01:20:31;;;;;;;5.07;4.88;;;;;;;15.14;100.00;102333.69;6029211;23;20236;-69
2022/07/09 01:22:58;;;;;;;5.03;4.82;;;;;;;15.09;100.00;102337.47;6024450;23;20114;-69
2022/07/09 01:25:34;;;;;;;4.70;4.50;;;;;;;15.09;100.00;102370.06;6024536;23;20572;-69
2022/07/09 01:28:01;;;;;;;5.80;5.53;;;;;;;14.92;100.00;102315.31;6028107;23;20106;-69
2022/07/09 01:30:28;;;;;;;5.20;5.00;;;;;;;15.05;100.00;102341.19;6026320;23;20019;-69
2022/07/09 01:32:55;;;;;;;4.80;4.60;;;;;;;15.03;100.00;102380.91;6021176;23;20119;-69
2022/07/09 01:35:22;;;;;;;4.93;4.72;;;;;;;14.98;100.00;102350.34;6036495;23;20249;-68
2022/07/09 01:37:48;;;;;;;5.22;4.97;;;;;;;14.75;100.00;102313.41;6050222;23;20183;-69
2022/07/09 01:40:15;;;;;;;5.00;4.80;;;;;;;14.90;100.00;102350.66;6063096;23;20054;-70
2022/07/09 01:42:41;;;;;;;4.80;4.60;;;;;;;14.82;100.00;102345.72;6027680;23;20086;-69
2022/07/09 01:45:09;;;;;;;4.80;4.60;;;;;;;14.61;100.00;102315.78;5995291;23;20053;-69
2022/07/09 01:47:36;;;;;;;5.00;4.80;;;;;;;14.75;100.00;102361.00;6026613;23;20054;-69
2022/07/09 01:50:03;;;;;;;6.25;5.65;;;;;;;14.61;100.00;102344.00;5998216;23;20089;-69
2022/07/09 01:52:30;;;;;;;5.43;5.22;;;;;;;13.92;100.00;102240.31;6036320;23;20151;-69
2022/07/09 01:54:57;;;;;;;5.00;4.80;;;;;;;14.59;100.00;102336.13;6024162;23;20090;-70
2022/07/09 01:57:23;;;;;;;5.38;5.18;;;;;;;14.75;100.00;102362.75;6018544;23;20078;-68
2022/07/09 01:59:49;;;;;;;5.38;5.15;;;;;;;14.78;100.00;102362.63;6028147;23;20115;-68
2022/07/09 02:02:16;;;;;;;6.50;6.20;;;;;;;14.86;100.00;102370.22;6021779;23;20109;-68
2022/07/09 02:04:42;;;;;;;5.10;4.90;;;;;;;14.94;100.00;102368.97;5999649;23;20059;-68
2022/07/09 02:07:09;;;;;;;6.47;6.18;;;;;;;15.06;100.00;102385.22;6000316;23;20015;-68
2022/07/09 02:09:35;;;;;;;4.90;4.70;;;;;;;15.10;100.00;102374.44;5997807;23;20029;-68
2022/07/09 02:12:02;;;;;;;5.82;5.55;;;;;;;15.27;100.00;102376.31;6019527;23;20042;-70
2022/07/09 02:14:28;;;;;;;5.07;4.85;;;;;;;15.33;100.00;102375.19;6023397;23;20015;-68
2022/07/09 02:16:55;;;;;;;4.97;4.78;;;;;;;15.50;100.00;102385.84;6025373;23;20031;-68
2022/07/09 02:19:21;;;;;;;5.00;4.80;;;;;;;15.53;100.00;102367.19;6018117;23;20039;-68
2022/07/09 02:21:48;;;;;;;4.85;4.65;;;;;;;15.68;100.00;102380.66;6022819;23;20086;-68
2022/07/09 02:24:15;;;;;;;6.35;6.05;;;;;;;15.61;100.00;102352.75;6023963;23;20507;-69
2022/07/09 02:26:42;;;;;;;5.03;4.78;;;;;;;15.79;100.00;102370.44;5999637;23;20082;-69
2022/07/09 02:29:08;;;;;;;6.93;6.63;;;;;;;15.80;100.00;102366.00;6019896;23;20015;-69
2022/07/09 02:31:34;;;;;;;5.03;4.80;;;;;;;15.78;100.00;102358.13;6024751;23;20019;-68
2022/07/09 02:34:01;;;;;;;5.38;5.15;;;;;;;15.80;100.00;102353.63;6024201;23;20027;-69
2022/07/09 02:36:27;;;;;;;5.10;4.80;;;;;;;15.78;100.00;102338.75;6021554;23;20039;-68
2022/07/09 02:38:54;;;;;;;5.68;5.28;;;;;;;15.74;100.00;102340.69;6038134;23;20356;-68
2022/07/09 02:41:20;;;;;;;5.28;5.03;;;;;;;15.55;100.00;102330.06;6015185;23;20229;-69
2022/07/09 02:43:47;;;;;;;5.03;4.82;;;;;;;15.69;100.00;102350.59;6009763;23;20031;-68
2022/07/09 02:46:13;;;;;;;6.72;6.35;;;;;;;15.50;100.00;102318.84;6021901;23;20046;-68
2022/07/09 02:48:40;;;;;;;5.63;5.32;;;;;;;15.69;100.00;102348.78;5995599;23;20032;-68
2022/07/09 02:51:06;;;;;;;6.18;5.88;;;;;;;14.76;100.00;102196.19;6021012;23;20022;-69
2022/07/09 02:53:32;;;;;;;4.95;4.75;;;;;;;15.66;100.00;102348.09;6032934;23;20436;-68
2022/07/09 02:55:59;;;;;;;5.47;5.18;;;;;;;15.67;100.00;102368.34;6020429;23;20019;-69
2022/07/09 02:58:25;;;;;;;5.00;4.80;;;;;;;15.42;100.00;102315.72;6020658;23;20030;-69
2022/07/09 03:00:52;;;;;;;5.28;5.05;;;;;;;15.53;100.00;102338.06;6000215;23;20031;-68
2022/07/09 03:03:18;;;;;;;5.90;5.60;;;;;;;15.47;100.00;102327.78;6022246;23;20443;-69
2022/07/09 03:05:45;;;;;;;4.90;4.70;;;;;;;15.22;100.00;102287.53;6024900;23;20401;-68
2022/07/09 03:08:11;;;;;;;6.53;6.22;;;;;;;15.22;100.00;102309.56;6019999;23;20025;-69
2022/07/09 03:10:37;;;;;;;4.82;4.63;;;;;;;15.30;100.00;102338.31;6017841;23;20164;-69
2022/07/09 03:13:04;;;;;;;6.05;5.75;;;;;;;15.23;100.00;102303.31;5998437;23;20165;-69
2022/07/09 03:15:37;;;;;;;4.82;4.63;;;;;;;15.23;100.00;102307.75;6011719;23;20014;-69
2022/07/09 03:18:07;;;;;;;6.35;6.05;;;;;;;15.03;100.00;102295.44;5995227;23;20459;-68
2022/07/09 03:20:35;;;;;;;5.13;4.93;;;;;;;15.02;100.00;102275.25;5998958;23;20401;-69
2022/07/09 03:23:03;;;;;;;5.63;5.32;;;;;;;15.10;100.00;102302.19;6021200;23;20101;-69
2022/07/09 03:25:30;;;;;;;5.22;4.93;;;;;;;15.08;100.00;102301.41;6016287;23;20513;-69
2022/07/09 03:27:57;;;;;;;4.97;4.78;;;;;;;14.32;100.00;102184.97;6028824;23;20030;-69
2022/07/09 03:30:23;;;;;;;5.20;5.00;;;;;;;14.87;100.00;102378.06;6019081;23;20304;-69
2022/07/09 03:32:53;;;;;;;5.25;5.05;;;;;;;15.07;100.00;102320.81;6028360;23;20027;-69
2022/07/09 03:35:19;;;;;;;5.20;5.00;;;;;;;15.03;100.00;102319.25;6014195;23;20081;-70
2022/07/09 03:37:45;;;;;;;4.88;4.68;;;;;;;14.90;100.00;102301.28;6028820;23;20023;-71
2022/07/09 03:40:12;;;;;;;5.28;4.97;;;;;;;14.89;100.00;102299.59;6034916;23;20084;-71
2022/07/09 03:42:39;;;;;;;4.97;4.78;;;;;;;15.03;100.00;102412.63;6025480;23;20354;-71
2022/07/09 03:45:05;;;;;;;5.35;5.05;;;;;;;15.07;100.00;102320.81;6036750;23;21232;-71
2022/07/09 03:47:32;;;;;;;5.55;5.25;;;;;;;14.91;100.00;102308.31;6021702;23;20060;-71
2022/07/09 03:49:58;;;;;;;5.20;5.00;;;;;;;15.09;100.00;102338.31;6024360;23;20194;-71
2022/07/09 03:52:25;;;;;;;10.70;5.53;;;;;;;14.94;100.00;102321.38;6019045;23;20241;-71
2022/07/09 03:54:51;;;;;;;4.93;4.72;;;;;;;15.09;100.00;102350.69;6022879;23;20576;-71
2022/07/09 03:57:18;;;;;;;5.93;5.63;;;;;;;14.39;100.00;102227.78;5994414;23;20461;-71
2022/07/09 03:59:44;;;;;;;5.10;4.90;;;;;;;14.98;100.00;102331.81;6015901;23;20022;-71
2022/07/09 04:02:10;;;;;;;6.40;6.03;;;;;;;14.94;100.00;102325.81;6025180;23;20029;-71
2022/07/09 04:04:40;;;;;;;5.38;5.18;;;;;;;15.11;100.00;102349.72;5990907;23;20034;-71
2022/07/09 04:07:06;;;;;;;7.15;6.82;;;;;;;15.04;100.00;102331.56;6016688;23;20227;-69
2022/07/09 04:09:33;;;;;;;5.65;5.35;;;;;;;15.30;100.00;102362.09;6033977;23;20209;-71
2022/07/09 04:11:59;;;;;;;5.55;5.25;;;;;;;15.34;100.00;102355.75;6017787;23;20034;-71
2022/07/09 04:14:25;;;;;;;5.45;5.00;;;;;;;15.34;100.00;102366.31;6030514;23;20554;-71
2022/07/09 04:16:52;;;;;;;4.88;4.68;;;;;;;15.38;100.00;102367.91;6023240;23;20018;-71
2022/07/09 04:19:19;;;;;;;5.45;5.25;;;;;;;15.40;100.00;102358.09;6046322;23;20053;-71
2022/07/09 04:21:45;;;;;;;4.78;4.57;;;;;;;15.26;100.00;102326.16;6019871;23;20015;-70
2022/07/09 04:24:12;;;;;;;7.00;6.68;;;;;;;15.50;100.00;102359.41;6022814;23;20055;-71
2022/07/09 04:26:38;;;;;;;5.10;4.90;;;;;;;15.25;100.00;102327.06;6023598;23;20007;-70
2022/07/09 04:29:06;;;;;;;7.25;6.82;;;;;;;15.46;100.00;102362.25;5998398;23;20027;-69
2022/07/09 04:31:32;;;;;;;5.30;5.00;;;;;;;15.62;100.00;102381.78;6026801;23;20452;-71
2022/07/09 04:33:59;;;;;;;5.63;5.32;;;;;;;15.39;100.00;102379.34;6024011;23;20027;-71
2022/07/09 04:36:27;;;;;;;4.80;4.60;;;;;;;15.44;100.00;102343.81;6025686;23;20492;-71
2022/07/09 04:38:55;;;;;;;5.63;5.30;;;;;;;15.77;100.00;102384.69;6010661;23;20082;-71
2022/07/09 04:41:22;;;;;;;5.38;5.00;;;;;;;15.76;100.00;102373.25;6019638;23;20037;-71
2022/07/09 04:43:48;;;;;;;4.95;4.75;;;;;;;15.99;100.00;102382.72;5984590;23;20179;-71
2022/07/09 04:46:16;;;;;;;7.47;7.07;;;;;;;16.29;100.00;102409.50;6023955;23;20011;-71
2022/07/09 04:48:43;;;;;;;5.30;5.00;;;;;;;16.26;100.00;102383.19;6034486;23;20043;-71
2022/07/09 04:51:09;;;;;;;6.63;6.32;;;;;;;17.32;98.21;102454.72;6028523;23;20317;-71
2022/07/09 04:53:35;;;;;;;5.20;4.97;;;;;;;18.50;90.62;102418.13;6036172;23;20101;-71
2022/07/09 04:56:02;;;;;;;6.60;6.25;;;;;;;19.25;82.48;102426.09;6019439;23;20039;-71
2022/07/09 04:58:29;;;;;;;5.72;5.43;;;;;;;20.23;77.36;102428.84;5997459;23;20025;-71
2022/07/09 05:00:55;;;;;;;5.80;5.50;;;;;;;20.83;73.74;102409.72;5999435;23;20421;-72
2022/07/09 05:03:22;;;;;;;6.18;5.88;;;;;;;21.64;70.67;102421.88;6019644;23;20023;-72
2022/07/09 05:05:48;;;;;;;5.88;5.57;;;;;;;21.09;68.22;102349.19;6053421;23;20175;-71
2022/07/09 05:08:17;;;;;;;7.00;6.60;;;;;;;21.79;67.73;102361.13;5992298;23;20358;-72
2022/07/09 05:10:44;;;;;;;5.97;5.57;;;;;;;22.66;65.85;102380.47;6004695;23;20028;-72
2022/07/09 05:13:10;;;;;;;6.90;6.40;;;;;;;23.22;62.90;102406.50;6000024;23;20038;-72
2022/07/09 05:15:37;;;;;;;6.22;5.93;;;;;;;22.34;62.05;102347.31;5999078;23;20023;-71
2022/07/09 05:18:03;;;;;;;6.15;5.85;;;;;;;21.76;64.90;102307.88;5995691;23;20036;-72
2022/07/09 05:20:30;;;;;;;5.72;5.43;;;;;;;20.92;67.92;102321.00;5975522;23;20027;-71
2022/07/09 05:22:57;;;;;;;6.22;5.90;;;;;;;20.13;72.10;102297.97;5996063;23;20038;-71
2022/07/09 05:25:23;;;;;;;6.28;5.90;;;;;;;19.65;75.06;102302.91;5995862;23;20019;-71
2022/07/09 05:27:50;;;;;;;5.95;5.65;;;;;;;19.14;78.01;102274.19;6001874;23;20095;-71
2022/07/09 05:30:17;;;;;;;7.30;6.80;;;;;;;18.92;80.32;102277.34;5993066;23;20353;-71
2022/07/09 05:32:46;;;;;;;5.97;5.65;;;;;;;19.19;80.24;102305.84;5994418;23;20026;-71
2022/07/09 05:35:12;;;;;;;8.20;7.75;;;;;;;19.70;79.49;102336.28;5999840;23;20038;-72
2022/07/09 05:37:43;;;;;;;5.97;5.68;;;;;;;20.00;75.79;102241.97;5991846;23;20494;-72
2022/07/09 05:40:11;;;;;;;7.20;6.80;;;;;;;21.71;71.08;102361.69;5964607;23;20016;-72
2022/07/09 05:42:39;;;;;;;6.60;6.15;;;;;;;21.85;66.70;102220.81;5992068;23;20030;-71
2022/07/09 05:45:06;;;;;;;6.95;6.55;;;;;;;23.13;62.72;102318.81;6009869;23;20027;-72
2022/07/09 05:47:32;;;;;;;6.80;6.40;;;;;;;23.54;63.02;102387.00;5990688;23;20031;-72
2022/07/09 05:49:59;;;;;;;6.65;6.20;;;;;;;23.56;61.93;102358.25;5998947;23;20019;-73
2022/07/09 05:52:26;;;;;;;6.75;6.35;;;;;;;23.86;60.49;102348.69;5998592;23;20015;-72
2022/07/09 05:54:52;;;;;;;6.65;6.32;;;;;;;24.61;58.53;102392.53;5995845;23;20020;-72
2022/07/09 05:57:18;;;;;;;7.68;7.15;;;;;;;24.39;59.06;102358.59;5995937;23;20042;-72
2022/07/09 05:59:45;;;;;;;7.10;6.68;;;;;;;24.54;58.48;102341.22;5999638;23;20036;-73
2022/07/09 06:02:11;;;;;;;7.95;7.47;;;;;;;24.94;57.63;102337.75;6014465;23;20042;-73
2022/07/09 06:04:38;;;;;;;7.93;7.32;;;;;;;24.95;58.64;102494.38;6015666;23;20198;-72
2022/07/09 06:07:05;;;;;;;7.32;6.93;;;;;;;24.60;58.76;102453.44;6019498;23;20043;-72
2022/07/09 06:09:31;;;;;;;6.78;6.38;;;;;;;25.01;58.52;102435.59;6003660;23;20086;-72
2022/07/09 06:12:00;;;;;;;6.20;5.90;;;;;;;25.65;56.72;102425.59;6026122;23;20369;-72
2022/07/09 06:14:27;;;;;;;6.22;5.90;;;;;;;25.51;56.24;102372.22;6025300;23;21012;-73
2022/07/09 06:16:55;;;;;;;6.55;6.15;;;;;;;25.79;55.16;102392.09;6027465;23;20041;-72
2022/07/09 06:19:22;;;;;;;7.07;6.68;;;;;;;26.05;54.03;102374.44;6026515;23;20725;-72
2022/07/09 06:21:49;;;;;;;6.93;6.43;;;;;;;26.41;52.62;102379.25;6027088;23;20393;-73
2022/07/09 06:24:16;;;;;;;8.13;7.63;;;;;;;26.10;53.37;102460.16;6019550;23;20414;-72
2022/07/09 06:26:42;;;;;;;6.63;6.13;;;;;;;25.45;53.74;102436.28;6030838;23;20017;-73
2022/07/09 06:29:08;;;;;;;7.90;7.40;;;;;;;25.62;55.04;102904.53;6029353;23;20019;-72
2022/07/09 06:31:35;;;;;;;6.93;6.40;;;;;;;25.08;56.00;102482.47;6021118;23;20041;-72
2022/07/09 06:34:02;;;;;;;7.50;6.95;;;;;;;24.16;59.54;102444.53;6026595;23;20094;-72
2022/07/09 06:36:29;;;;;;;7.55;7.03;;;;;;;22.97;63.26;102404.84;6016903;23;20023;-72
2022/07/09 06:41:40;;;;;;;7.78;7.15;;;;;;;23.07;63.81;102435.34;6024103;23;20451;-71
2022/07/09 06:44:07;;;;;;;8.63;8.13;;;;;;;22.14;65.56;102396.91;5990260;23;20265;-72
2022/07/09 06:46:35;;;;;;;6.47;6.13;;;;;;;22.68;64.46;102421.34;6024899;23;20019;-72
2022/07/09 06:49:01;;;;;;;7.70;7.30;;;;;;;22.89;64.56;102401.91;6002495;23;20015;-72
2022/07/09 06:51:28;;;;;;;7.38;6.88;;;;;;;23.09;63.84;102387.88;6019687;23;20038;-72
2022/07/09 06:53:54;;;;;;;6.50;6.20;;;;;;;22.98;60.21;102347.66;6006423;23;20022;-72
2022/07/09 06:56:22;;;;;;;6.82;6.32;;;;;;;22.03;62.18;102306.78;6019444;23;20089;-71
2022/07/09 06:58:48;;;;;;;6.53;6.22;;;;;;;22.11;64.19;102325.81;6008848;23;20030;-71
2022/07/09 07:01:15;;;;;;;7.70;7.30;;;;;;;22.11;60.66;102302.56;6038613;23;20022;-71
2022/07/09 07:03:41;;;;;;;5.93;5.63;;;;;;;21.85;61.38;102271.59;6022589;23;20027;-71
2022/07/09 07:06:08;;;;;;;5.88;5.57;;;;;;;22.34;60.34;102305.34;5993451;23;20101;-72
2022/07/09 07:08:34;;;;;;;6.38;5.97;;;;;;;22.48;59.83;102304.28;6022405;23;20623;-72
2022/07/09 07:11:02;;;;;;;7.00;6.68;;;;;;;22.51;58.82;102298.69;6019323;23;20109;-71
2022/07/09 07:13:28;;;;;;;5.65;5.35;;;;;;;21.71;62.45;102244.09;6028255;23;20108;-71
2022/07/09 07:15:55;;;;;;;5.93;5.50;;;;;;;21.78;59.98;102281.06;6020326;23;20442;-70
2022/07/09 07:18:21;;;;;;;5.93;5.63;;;;;;;22.08;59.19;102269.88;6018861;23;20007;-71
2022/07/09 07:20:48;;;;;;;5.90;5.60;;;;;;;22.37;60.39;102298.91;6022417;23;20109;-70
2022/07/09 07:23:15;;;;;;;8.40;7.78;;;;;;;22.35;61.36;102290.16;6017333;23;20414;-71
2022/07/09 07:25:42;;;;;;;6.38;5.97;;;;;;;22.65;59.60;102273.53;5995747;23;20456;-71
2022/07/09 07:28:08;;;;;;;7.13;6.78;;;;;;;22.30;60.55;102237.84;6013906;23;20494;-70
2022/07/09 07:30:35;;;;;;;6.13;5.75;;;;;;;22.55;59.14;102270.75;5994406;23;20012;-71
2022/07/09 07:33:02;;;;;;;7.07;6.05;;;;;;;22.55;59.63;102276.09;6015848;23;20023;-72
2022/07/09 07:35:28;;;;;;;5.85;5.55;;;;;;;22.27;61.35;102272.88;5994996;23;20014;-71
2022/07/09 07:37:55;;;;;;;6.32;5.93;;;;;;;22.76;60.15;102296.78;6004967;23;20074;-71
2022/07/09 07:40:22;;;;;;;6.03;5.65;;;;;;;22.40;59.78;102251.38;6024940;23;20329;-71
2022/07/09 07:42:48;;;;;;;5.75;5.40;;;;;;;22.93;59.16;102295.44;6021236;23;20074;-71
2022/07/09 07:45:15;;;;;;;6.85;6.55;;;;;;;22.91;58.51;102276.81;6021901;23;20025;-72
2022/07/09 07:47:41;;;;;;;5.80;5.50;;;;;;;22.55;59.78;102264.53;6016937;23;20094;-72
2022/07/09 07:50:08;;;;;;;7.07;6.78;;;;;;;22.89;58.93;102281.44;6042142;23;20023;-71
2022/07/09 07:52:34;;;;;;;5.68;5.28;;;;;;;23.35;59.44;102309.06;6023659;23;20589;-71
2022/07/09 07:55:01;;;;;;;7.20;6.60;;;;;;;23.20;58.20;102266.47;6022645;23;20023;-71
2022/07/09 07:57:27;;;;;;;5.63;5.43;;;;;;;23.61;57.16;102306.94;6017314;23;20099;-71
2022/07/09 07:59:54;;;;;;;5.80;5.50;;;;;;;24.24;55.42;102446.59;6024243;23;20065;-71
2022/07/09 08:02:20;;;;;;;6.20;5.90;;;;;;;24.11;54.10;102373.47;6010247;23;20145;-72
2022/07/09 08:04:47;;;;;;;5.85;5.55;;;;;;;24.27;53.22;102446.34;5992199;23;20790;-72
2022/07/09 08:07:13;;;;;;;6.93;6.63;;;;;;;23.73;53.83;102413.16;6018776;23;20090;-72
2022/07/09 08:09:40;;;;;;;5.72;5.43;;;;;;;24.03;54.42;102382.16;5993284;23;20034;-72
2022/07/09 08:12:07;;;;;;;6.88;6.55;;;;;;;24.59;53.95;102398.03;6018975;23;20070;-71
2022/07/09 08:14:33;;;;;;;6.07;5.78;;;;;;;24.85;52.17;102360.88;5997519;23;20372;-72
2022/07/09 08:17:00;;;;;;;5.88;5.57;;;;;;;24.45;51.57;102320.50;6015263;23;20014;-73
2022/07/09 08:19:26;;;;;;;6.28;5.97;;;;;;;24.46;52.05;102303.41;6024697;23;20019;-72
2022/07/09 08:21:58;;;;;;;5.93;5.63;;;;;;;24.16;54.03;102270.19;6025020;23;20282;-72
2022/07/09 08:24:25;;;;;;;5.90;5.57;;;;;;;24.46;52.36;102295.38;6019258;23;20464;-72
2022/07/09 08:26:51;;;;;;;5.60;5.30;;;;;;;24.87;51.40;102296.31;6020079;23;20046;-71
2022/07/09 08:29:18;;;;;;;6.28;5.97;;;;;;;25.06;51.66;102277.59;6015541;23;20089;-71
2022/07/09 08:31:44;;;;;;;5.47;5.28;;;;;;;24.95;50.69;102269.63;6018934;23;20015;-71
2022/07/09 08:34:11;;;;;;;6.97;6.68;;;;;;;24.25;51.95;102214.88;6038876;23;20015;-71
2022/07/09 08:36:37;;;;;;;5.90;5.60;;;;;;;24.81;50.30;102235.09;6027219;23;20074;-71
2022/07/09 08:39:04;;;;;;;6.55;6.25;;;;;;;25.23;50.99;102256.44;6003867;23;20023;-71
2022/07/09 08:41:30;;;;;;;5.80;5.50;;;;;;;25.44;49.12;102253.66;6023258;23;20298;-70
2022/07/09 08:43:57;;;;;;;5.70;5.50;;;;;;;24.22;48.69;102108.69;5989282;23;20169;-71
2022/07/09 08:46:23;;;;;;;6.20;5.63;;;;;;;25.48;48.72;102279.25;6015323;23;20865;-71
2022/07/09 08:48:51;;;;;;;5.53;5.32;;;;;;;25.32;48.23;102263.69;6022661;23;20039;-71
2022/07/09 08:51:19;;;;;;;5.43;5.22;;;;;;;25.45;48.31;102260.72;6016402;23;20276;-71
2022/07/09 08:53:45;;;;;;;5.50;5.30;;;;;;;25.73;48.35;102267.09;6030250;23;20445;-71
2022/07/09 08:56:12;;;;;;;6.80;6.50;;;;;;;25.70;47.54;102231.56;6013077;23;20198;-71
2022/07/09 08:58:39;;;;;;;6.00;5.70;;;;;;;26.39;45.86;102277.09;5998973;23;20094;-71
2022/07/09 09:01:06;;;;;;;6.53;6.22;;;;;;;26.24;46.16;102251.63;6023152;23;20015;-71
2022/07/09 09:03:33;;;;;;;5.43;5.22;;;;;;;26.20;45.42;102250.22;6021934;23;20430;-70
2022/07/09 09:06:08;;;;;;;5.65;5.40;;;;;;;25.63;44.83;102225.91;6018839;23;20023;-71
2022/07/09 09:08:43;;;;;;;5.60;5.30;;;;;;;25.71;45.71;102223.38;6027256;23;20043;-71
2022/07/09 09:11:15;;;;;;;6.90;6.60;;;;;;;25.82;44.26;102219.66;6022687;23;20342;-71
2022/07/09 09:13:43;;;;;;;5.32;5.13;;;;;;;25.10;46.09;102184.13;6028169;23;20027;-72
2022/07/09 09:16:12;;;;;;;6.63;6.32;;;;;;;25.54;45.76;102210.63;6019916;23;20078;-71
2022/07/09 09:18:40;;;;;;;5.50;5.30;;;;;;;25.43;46.72;102200.88;5999706;23;20026;-71
2022/07/09 09:21:08;;;;;;;6.15;5.85;;;;;;;25.72;46.02;102210.75;6022425;23;20015;-70
2022/07/09 09:23:39;;;;;;;5.57;5.38;;;;;;;25.88;44.71;102211.06;6023867;23;20074;-73
2022/07/09 09:26:19;;;;;;;6.28;5.97;;;;;;;26.12;45.64;102234.84;6027812;23;20022;-71
2022/07/09 09:28:58;;;;;;;5.43;5.20;;;;;;;26.22;43.94;102207.88;5993211;23;20018;-70
2022/07/09 09:31:35;;;;;;;5.43;5.22;;;;;;;26.29;44.44;102205.47;6022833;23;20038;-72
2022/07/09 09:34:13;;;;;;;6.45;6.15;;;;;;;26.21;44.64;102180.13;6026803;23;20054;-71
2022/07/09 09:36:44;;;;;;;5.90;5.60;;;;;;;26.80;43.81;102328.03;6040537;23;20018;-71
2022/07/09 09:39:14;;;;;;;6.65;6.35;;;;;;;27.20;43.34;102311.56;6034706;23;20334;-71
2022/07/09 09:41:45;;;;;;;5.55;5.30;;;;;;;26.75;43.48;102282.69;6022661;23;20479;-71
2022/07/09 09:44:17;;;;;;;5.45;5.25;;;;;;;27.04;43.00;102285.25;6021552;23;20011;-71
2022/07/09 09:46:45;;;;;;;5.60;5.40;;;;;;;27.05;43.64;102262.69;6029964;23;20011;-70
2022/07/09 09:49:15;;;;;;;7.25;6.95;;;;;;;26.85;44.01;102218.84;6019623;23;20115;-71
2022/07/09 09:51:51;;;;;;;5.60;5.32;;;;;;;26.38;44.60;102208.13;6027106;23;20011;-71
2022/07/09 09:54:19;;;;;;;5.90;5.60;;;;;;;26.56;44.85;102200.13;6015354;23;20061;-72
2022/07/09 09:56:46;;;;;;;5.60;5.30;;;;;;;26.71;44.95;102195.09;6027705;23;20085;-71
2022/07/09 09:59:12;;;;;;;6.22;5.93;;;;;;;26.32;44.42;102106.44;6019315;23;20029;-71
2022/07/09 10:01:43;;;;;;;5.63;5.32;;;;;;;26.34;43.62;102166.34;6023442;23;20022;-72
2022/07/09 10:04:11;;;;;;;6.05;5.75;;;;;;;26.43;43.24;102127.75;6031790;23;20038;-74
2022/07/09 10:06:39;;;;;;;5.53;5.32;;;;;;;27.16;42.59;102309.28;6027065;23;20010;-73
2022/07/09 10:09:07;;;;;;;6.43;6.13;;;;;;;27.65;42.29;102320.66;6029018;23;20042;-73
2022/07/09 10:11:41;;;;;;;5.38;5.18;;;;;;;27.79;42.37;102278.81;6028158;23;20015;-72
2022/07/09 10:14:15;;;;;;;6.60;6.30;;;;;;;27.49;41.34;102229.66;6011721;23;20087;-72
2022/07/09 10:16:42;;;;;;;5.68;5.40;;;;;;;28.11;42.00;102258.53;5993524;23;20019;-72
2022/07/09 10:19:08;;;;;;;6.70;6.40;;;;;;;28.07;40.69;102241.78;6012138;23;20488;-72
2022/07/09 10:21:40;;;;;;;5.60;5.30;;;;;;;27.94;41.44;102206.28;6027534;23;20029;-72
2022/07/09 10:24:09;;;;;;;5.32;5.13;;;;;;;27.84;40.66;102187.44;6018823;23;20032;-73
2022/07/09 10:26:38;;;;;;;6.57;6.28;;;;;;;28.57;40.12;102197.91;6018763;23;20093;-72
2022/07/09 10:29:25;;;;;;;6.45;6.15;;;;;;;27.82;40.01;102143.59;6021212;23;20023;-72
2022/07/09 10:31:54;;;;;;;5.65;5.35;;;;;;;27.49;41.46;102156.84;6021898;23;20106;-72
2022/07/09 10:35:00;;;;;;;6.10;5.80;;;;;;;27.35;40.91;102332.66;6016380;23;20042;-72
2022/07/09 10:37:38;;;;;;;5.47;5.28;;;;;;;27.48;41.29;102310.69;5982545;23;20039;-72
2022/07/09 10:40:18;;;;;;;6.65;6.35;;;;;;;27.30;40.76;102235.19;5987174;23;20090;-72
2022/07/09 10:42:57;;;;;;;5.65;5.35;;;;;;;28.28;40.59;102230.63;6024821;23;20282;-74
2022/07/09 10:45:24;;;;;;;5.65;5.35;;;;;;;28.11;40.06;102202.69;6017095;23;20035;-73
2022/07/09 10:47:55;;;;;;;5.38;5.18;;;;;;;27.99;39.89;102171.56;6010298;23;20018;-73
2022/07/09 10:50:24;;;;;;;5.75;5.45;;;;;;;27.63;41.35;102150.03;6017677;23;20502;-72
2022/07/09 10:52:51;;;;;;;5.63;5.32;;;;;;;27.09;42.04;102098.84;6005926;23;20022;-72
2022/07/09 10:55:19;;;;;;;6.10;5.80;;;;;;;26.84;42.98;102119.31;6019668;23;20113;-72
2022/07/09 10:57:46;;;;;;;5.70;5.40;;;;;;;27.22;41.94;102130.78;6001747;23;20039;-71
2022/07/09 11:00:27;;;;;;;6.78;6.47;;;;;;;27.18;42.06;102121.31;6024383;23;20015;-74
2022/07/09 11:02:58;;;;;;;5.60;5.30;;;;;;;27.51;41.71;102135.13;6021146;23;20077;-73
2022/07/09 11:05:26;;;;;;;6.00;5.70;;;;;;;27.03;41.56;102050.97;6014576;23;21130;-71
2022/07/09 11:07:55;;;;;;;5.60;5.30;;;;;;;27.41;41.79;102116.34;5997952;23;20054;-71
2022/07/09 11:10:22;;;;;;;5.70;5.30;;;;;;;27.09;43.17;102133.03;6007465;23;20047;-72
2022/07/09 11:12:49;;;;;;;5.45;5.20;;;;;;;27.66;42.73;102171.28;6001156;23;20046;-71
2022/07/09 11:15:19;;;;;;;6.55;6.25;;;;;;;27.75;41.57;102162.28;6013730;23;20093;-72
2022/07/09 11:18:00;;;;;;;5.68;5.38;;;;;;;27.79;41.92;102179.84;5990710;23;20086;-71
2022/07/09 11:20:28;;;;;;;5.28;5.07;;;;;;;27.88;42.09;102171.81;6020225;23;20500;-71
2022/07/09 11:23:00;;;;;;;5.60;5.30;;;;;;;27.43;41.35;102111.63;5992400;23;20543;-71
2022/07/09 11:25:27;;;;;;;5.47;5.28;;;;;;;27.42;41.56;102104.53;6020145;23;20496;-71
2022/07/09 11:27:58;;;;;;;5.70;5.40;;;;;;;27.57;41.53;102112.91;6010060;23;20053;-70